Quick Links (Output Below):   Max & Min Temps   /   Climate Reports   /   Zone Forecasts
River Forecasts   /   Forestry Forecasts   /   Aviation Forecasts   /   Radars   /   Features

Terminal Aerodrome Forecast (Fayetteville)

Pick a Site:
Arkadelphia | El Dorado | Fayetteville | Fort Smith | Harrison | Highfill | Hot Springs | Jonesboro
Little Rock | Monticello | Mountain Home | Pine Bluff | Texarkana
 Forecast 

KFYV 220828Z 2208/2306 00000KT P6SM SCT250
      TEMPO 2208/2212 3SM BR BKN002
     FM221800 15007KT P6SM VCSH BKN050
     FM222200 14006KT 6SM -TSRA OVC030CB=


 Latest METARs (Observations) 
How to Decode METARs
09Z KFYV 220853Z AUTO 00000KT 1 1/2SM BR BKN002 07/07 A3021 RMK AO2
         SLP227 T00720072 58001
         
08Z KFYV 220753Z AUTO 17003KT 10SM CLR 07/07 A3021 RMK AO2 SLP229
         T00670067
         
07Z KFYV 220653Z AUTO 00000KT 10SM CLR 07/07 A3021 RMK AO2 SLP229
         T00720072
         
06Z KFYV 220553Z AUTO 00000KT 10SM CLR 08/08 A3023 RMK AO2 SLP234
         T00780078 10161 20072 401720072 50003
         
05Z KFYV 220453Z AUTO 00000KT 10SM CLR 08/08 A3023 RMK AO2 SLP235
         T00830083
         
04Z KFYV 220353Z AUTO 00000KT 10SM CLR 09/09 A3023 RMK AO2 SLP235
         T00940089
         
03Z KFYV 220253Z AUTO 00000KT 10SM CLR 10/09 A3022 RMK AO2 SLP231
         T01000094 53006
         
02Z KFYV 220153Z 00000KT 10SM CLR 12/09 A3020 RMK AO2 SLP225
         T01220094
         
01Z KFYV 220053Z 02003KT 10SM CLR 15/09 A3019 RMK AO2 SLP222
         T01500089
         
00Z KFYV 212353Z 05003KT 10SM CLR 17/08 A3020 RMK AO2 SLP222 T01670083
         10172 20139 56009
         
***** Today's Observations (Above) *****


Back to Main Page
http://www.srh.noaa.gov/lzk/qfcst.php

USA.gov is the U.S. government's official web portal to all federal, state and local government web resources and services.